createdAt,value
2017-01-08T00:00:10.701Z,0
2017-01-08T00:02:23.056Z,0
2017-01-08T00:04:35.367Z,0
2017-01-08T00:06:47.869Z,0
2017-01-08T00:09:00.382Z,0
2017-01-08T00:11:12.954Z,0
2017-01-08T00:13:25.468Z,0
2017-01-08T00:15:37.780Z,0
2017-01-08T00:17:50.071Z,0
2017-01-08T00:19:57.597Z,0
2017-01-08T00:22:10.281Z,0
2017-01-08T00:24:22.656Z,0
2017-01-08T00:26:35.427Z,0
2017-01-08T00:28:50.019Z,0
2017-01-08T00:31:04.544Z,0
2017-01-08T00:33:16.939Z,0
2017-01-08T00:35:29.385Z,0
2017-01-08T00:37:44.497Z,0
2017-01-08T00:39:59.287Z,0
2017-01-08T00:42:17.884Z,0
2017-01-08T00:44:27.799Z,0
2017-01-08T00:46:38.077Z,0
2017-01-08T00:48:52.822Z,0
2017-01-08T00:51:07.378Z,0
2017-01-08T00:53:22.123Z,0
2017-01-08T00:55:39.033Z,0
2017-01-08T00:57:55.192Z,0
2017-01-08T01:00:08.805Z,0
2017-01-08T01:02:23.921Z,0
2017-01-08T01:06:51.971Z,0
2017-01-08T01:09:05.656Z,0
2017-01-08T01:11:18.997Z,0
2017-01-08T01:13:34.244Z,0
2017-01-08T01:15:46.783Z,0
2017-01-08T01:18:00.143Z,0
2017-01-08T01:20:13.346Z,0
2017-01-08T01:22:28.482Z,0
2017-01-08T01:24:43.037Z,0
2017-01-08T01:26:55.402Z,0
2017-01-08T01:29:08.041Z,0
2017-01-08T01:31:20.891Z,0
2017-01-08T01:33:33.990Z,0
2017-01-08T01:35:43.031Z,0
2017-01-08T01:37:55.674Z,0
2017-01-08T01:40:09.555Z,0
2017-01-08T01:42:28.667Z,0
2017-01-08T01:44:42.830Z,0
2017-01-08T01:46:53.714Z,0
2017-01-08T01:49:07.799Z,0
2017-01-08T01:51:21.322Z,0
2017-01-08T01:53:34.923Z,0
2017-01-08T01:55:48.715Z,0
2017-01-08T01:58:01.362Z,0
2017-01-08T02:00:18.006Z,0
2017-01-08T02:02:32.976Z,0
2017-01-08T02:04:47.340Z,0
2017-01-08T02:07:01.793Z,0
2017-01-08T02:09:10.282Z,0
2017-01-08T02:11:23.542Z,0
2017-01-08T02:13:36.637Z,0
2017-01-08T02:15:49.240Z,0
2017-01-08T02:18:01.789Z,0
2017-01-08T02:20:14.807Z,0
2017-01-08T02:22:27.564Z,0
2017-01-08T02:24:44.541Z,0
2017-01-08T02:26:57.028Z,0
2017-01-08T02:29:04.985Z,0
2017-01-08T02:31:20.376Z,0
2017-01-08T02:33:36.743Z,0
2017-01-08T02:35:49.863Z,0
2017-01-08T02:38:04.967Z,0
2017-01-08T02:40:17.594Z,0
2017-01-08T02:42:35.858Z,0
2017-01-08T02:44:48.297Z,0
2017-01-08T02:47:01.891Z,0
2017-01-08T02:49:14.485Z,0
2017-01-08T02:51:27.081Z,0
2017-01-08T02:53:34.421Z,0
2017-01-08T02:55:46.798Z,0
2017-01-08T02:58:02.885Z,0
2017-01-08T03:00:15.266Z,0
2017-01-08T03:02:27.668Z,0
2017-01-08T03:04:40.188Z,0
2017-01-08T03:06:53.700Z,0
2017-01-08T03:08:56.244Z,0
2017-01-08T03:11:08.631Z,0
2017-01-08T03:13:20.995Z,0
2017-01-08T03:15:33.349Z,0
2017-01-08T03:17:45.733Z,0
2017-01-08T03:19:59.153Z,0
2017-01-08T03:22:11.509Z,0
2017-01-08T03:24:24.425Z,0
2017-01-08T03:26:36.902Z,0
2017-01-08T03:28:49.290Z,0
2017-01-08T03:31:01.774Z,0
2017-01-08T03:33:14.425Z,0
2017-01-08T03:35:26.829Z,0
2017-01-08T03:37:39.271Z,0
2017-01-08T03:39:51.693Z,0
2017-01-08T03:42:01.051Z,0
2017-01-08T03:44:13.480Z,0
2017-01-08T03:46:26.916Z,0
2017-01-08T03:48:39.212Z,0
2017-01-08T03:50:51.673Z,0
2017-01-08T03:53:07.037Z,0
2017-01-08T03:55:19.368Z,0
2017-01-08T03:57:31.871Z,0
2017-01-08T03:59:44.530Z,0
2017-01-08T04:02:01.754Z,0
2017-01-08T04:04:14.675Z,0
2017-01-08T04:06:27.997Z,0
2017-01-08T04:08:42.557Z,0
2017-01-08T04:10:54.954Z,0
2017-01-08T04:13:07.494Z,0
2017-01-08T04:15:19.900Z,0
2017-01-08T04:17:32.236Z,0
2017-01-08T04:19:44.739Z,0
2017-01-08T04:21:56.945Z,0
2017-01-08T04:24:09.706Z,0
2017-01-08T04:26:18.201Z,0
2017-01-08T04:28:30.587Z,0
2017-01-08T04:30:42.986Z,0
2017-01-08T04:32:55.430Z,0
2017-01-08T04:35:07.841Z,0
2017-01-08T04:37:21.838Z,0
2017-01-08T04:39:29.464Z,0
2017-01-08T04:41:41.990Z,0
2017-01-08T04:43:54.565Z,0
2017-01-08T04:46:10.847Z,0
2017-01-08T04:48:23.324Z,0
2017-01-08T04:50:35.863Z,0
2017-01-08T04:52:48.356Z,0
2017-01-08T04:55:00.685Z,0
2017-01-08T04:57:14.376Z,0
2017-01-08T04:59:27.820Z,0
2017-01-08T05:01:42.157Z,0
2017-01-08T05:03:56.560Z,0
2017-01-08T05:06:08.929Z,0
2017-01-08T05:08:22.535Z,0
2017-01-08T05:10:35.951Z,0
2017-01-08T05:12:48.798Z,0
2017-01-08T05:15:02.947Z,0
2017-01-08T05:17:19.150Z,0
2017-01-08T05:19:31.485Z,0
2017-01-08T05:21:43.989Z,0
2017-01-08T05:23:58.420Z,0
2017-01-08T05:26:11.925Z,0
2017-01-08T05:28:19.373Z,0
2017-01-08T05:30:31.746Z,0
2017-01-08T05:32:46.178Z,0
2017-01-08T05:34:58.642Z,0
2017-01-08T05:37:11.118Z,0
2017-01-08T05:39:23.533Z,0
2017-01-08T05:41:35.990Z,0
2017-01-08T05:43:48.329Z,0
2017-01-08T05:46:01.207Z,0
2017-01-08T05:48:13.701Z,0
2017-01-08T05:50:26.624Z,0
2017-01-08T05:52:39.056Z,0
2017-01-08T05:54:56.063Z,0
2017-01-08T05:57:10.474Z,0
2017-01-08T05:59:23.969Z,0
2017-01-08T06:01:37.515Z,0
2017-01-08T06:03:49.923Z,0
2017-01-08T06:06:02.418Z,0
2017-01-08T06:08:15.876Z,0
2017-01-08T06:10:28.340Z,0
2017-01-08T06:12:40.643Z,0
2017-01-08T06:14:52.945Z,0
2017-01-08T06:17:05.461Z,0
2017-01-08T06:19:12.868Z,0
2017-01-08T06:21:25.434Z,0
2017-01-08T06:23:37.906Z,0
2017-01-08T06:25:51.083Z,0
2017-01-08T06:28:04.798Z,0
2017-01-08T06:30:17.169Z,0
2017-01-08T06:32:29.807Z,0
2017-01-08T06:34:42.350Z,0
2017-01-08T06:36:54.869Z,0
2017-01-08T06:39:04.507Z,0
2017-01-08T06:41:16.835Z,0
2017-01-08T06:43:31.162Z,4
2017-01-08T06:45:43.549Z,0
2017-01-08T06:47:50.877Z,0
2017-01-08T06:50:03.297Z,4
2017-01-08T06:52:16.738Z,8
2017-01-08T06:54:29.365Z,8
2017-01-08T06:56:41.769Z,8
2017-01-08T06:58:54.138Z,8
2017-01-08T07:01:01.709Z,12
2017-01-08T07:03:09.691Z,16
2017-01-08T07:05:22.180Z,16
2017-01-08T07:07:34.626Z,24
2017-01-08T07:09:50.981Z,28
2017-01-08T07:12:03.665Z,36
2017-01-08T07:14:16.110Z,44
2017-01-08T07:16:32.160Z,52
2017-01-08T07:18:44.602Z,56
2017-01-08T07:20:52.182Z,68
2017-01-08T07:23:04.673Z,80
2017-01-08T07:25:17.117Z,88
2017-01-08T07:27:29.526Z,88
2017-01-08T07:29:43.100Z,92
2017-01-08T07:31:55.492Z,96
2017-01-08T07:34:07.921Z,112
2017-01-08T07:36:20.480Z,124
2017-01-08T07:38:33.301Z,160
2017-01-08T07:40:45.803Z,172
2017-01-08T07:42:58.132Z,176
2017-01-08T07:45:10.469Z,164
2017-01-08T07:47:22.814Z,176
2017-01-08T07:49:35.360Z,196
2017-01-08T07:51:47.853Z,220
2017-01-08T07:54:01.469Z,244
2017-01-08T07:56:13.837Z,272
2017-01-08T07:58:26.104Z,304
2017-01-08T08:00:38.377Z,352
2017-01-08T08:02:50.675Z,352
2017-01-08T08:05:03.057Z,320
2017-01-08T08:07:15.546Z,316
2017-01-08T08:09:23.184Z,352
2017-01-08T08:11:35.959Z,380
2017-01-08T08:13:43.780Z,384
2017-01-08T08:15:57.293Z,384
2017-01-08T08:18:09.746Z,384
2017-01-08T08:20:24.010Z,408
2017-01-08T08:22:36.269Z,412
2017-01-08T08:24:48.629Z,412
2017-01-08T08:27:01.078Z,404
2017-01-08T08:29:13.408Z,384
2017-01-08T08:31:20.929Z,376
2017-01-08T08:33:34.357Z,368
2017-01-08T08:35:46.665Z,356
2017-01-08T08:37:58.977Z,336
2017-01-08T08:40:06.258Z,360
2017-01-08T08:42:18.638Z,424
2017-01-08T08:44:21.391Z,456
2017-01-08T08:46:33.791Z,500
2017-01-08T08:48:41.798Z,520
2017-01-08T08:50:54.173Z,532
2017-01-08T08:53:07.530Z,556
2017-01-08T08:55:19.891Z,560
2017-01-08T08:57:32.275Z,524
2017-01-08T08:59:44.998Z,500
2017-01-08T09:01:52.415Z,496
2017-01-08T09:04:04.922Z,488
2017-01-08T09:06:18.463Z,532
2017-01-08T09:08:35.862Z,600
2017-01-08T09:10:51.141Z,648
2017-01-08T09:13:05.163Z,680
2017-01-08T09:15:19.648Z,724
2017-01-08T09:17:34.529Z,728
2017-01-08T09:19:50.184Z,700
2017-01-08T09:22:04.570Z,688
2017-01-08T09:24:19.825Z,676
2017-01-08T09:26:35.006Z,660
2017-01-08T09:28:50.343Z,640
2017-01-08T09:30:59.544Z,640
2017-01-08T09:33:14.411Z,652
2017-01-08T09:35:24.073Z,708
2017-01-08T09:37:34.726Z,784
2017-01-08T09:39:48.971Z,844
2017-01-08T09:41:58.579Z,876
2017-01-08T09:44:13.808Z,908
2017-01-08T09:46:17.686Z,864
2017-01-08T09:48:33.415Z,820
2017-01-08T09:50:46.234Z,788
2017-01-08T09:53:02.987Z,788
2017-01-08T09:55:16.658Z,884
2017-01-08T09:57:26.521Z,1020
2017-01-08T09:59:42.436Z,1180
2017-01-08T10:01:57.278Z,1252
2017-01-08T10:04:12.261Z,1108
2017-01-08T10:06:28.116Z,956
2017-01-08T10:08:43.134Z,924
2017-01-08T10:10:52.166Z,936
2017-01-08T10:13:07.345Z,1036
2017-01-08T10:15:22.181Z,1220
2017-01-08T10:17:36.608Z,1524
2017-01-08T10:19:52.141Z,1504
2017-01-08T10:22:07.677Z,1172
2017-01-08T10:24:20.780Z,920
2017-01-08T10:26:39.188Z,1000
2017-01-08T10:28:55.461Z,1360
2017-01-08T10:31:11.979Z,1620
2017-01-08T10:33:27.347Z,1756
2017-01-08T10:35:42.717Z,1756
2017-01-08T10:37:57.185Z,1732
2017-01-08T10:40:13.118Z,1604
2017-01-08T10:42:24.245Z,1540
2017-01-08T10:44:39.697Z,1360
2017-01-08T10:46:48.572Z,1256
2017-01-08T10:49:02.538Z,1232
2017-01-08T10:51:25.683Z,1212
2017-01-08T10:53:42.290Z,1236
2017-01-08T10:55:57.128Z,1364
2017-01-08T10:58:12.478Z,1688
2017-01-08T11:00:27.968Z,1612
2017-01-08T11:02:38.101Z,1528
2017-01-08T11:04:47.075Z,1288
2017-01-08T11:07:03.287Z,1112
2017-01-08T11:09:12.258Z,972
2017-01-08T11:11:26.309Z,940
2017-01-08T11:13:42.747Z,972
2017-01-08T11:15:58.172Z,988
2017-01-08T11:18:11.903Z,1016
2017-01-08T11:20:20.681Z,1116
2017-01-08T11:22:36.578Z,1156
2017-01-08T11:24:50.819Z,1216
2017-01-08T11:27:06.492Z,1160
2017-01-08T11:29:16.661Z,1068
2017-01-08T11:31:30.358Z,1060
2017-01-08T11:33:51.762Z,1060
2017-01-08T11:36:10.750Z,1072
2017-01-08T11:38:20.093Z,1136
2017-01-08T11:40:34.218Z,1132
2017-01-08T11:42:49.918Z,1064
2017-01-08T11:45:05.933Z,1032
2017-01-08T11:47:19.185Z,1148
2017-01-08T11:49:35.622Z,1144
2017-01-08T11:51:58.152Z,1104
2017-01-08T11:54:17.698Z,1128
2017-01-08T11:56:36.046Z,1032
2017-01-08T11:58:47.615Z,988
2017-01-08T12:01:03.047Z,996
2017-01-08T12:03:23.668Z,996
2017-01-08T12:07:56.553Z,1012
2017-01-08T12:10:23.085Z,972
2017-01-08T12:12:39.726Z,1052
2017-01-08T12:15:00.408Z,1028
2017-01-08T12:17:26.841Z,996
2017-01-08T12:19:46.881Z,952
2017-01-08T12:22:03.462Z,968
2017-01-08T12:24:21.331Z,888
2017-01-08T12:26:35.661Z,996
2017-01-08T12:28:48.264Z,992
2017-01-08T12:31:00.212Z,912
2017-01-08T12:33:13.817Z,928
2017-01-08T12:35:28.287Z,916
2017-01-08T12:37:36.730Z,900
2017-01-08T12:39:54.559Z,1032
2017-01-08T12:42:02.952Z,1072
2017-01-08T12:44:15.295Z,1060
2017-01-08T12:46:28.769Z,980
2017-01-08T12:48:44.970Z,972
2017-01-08T12:50:53.813Z,1020
2017-01-08T12:53:08.724Z,1016
2017-01-08T12:55:19.768Z,896
2017-01-08T12:57:32.972Z,784
2017-01-08T12:59:45.366Z,724
2017-01-08T13:01:55.126Z,760
2017-01-08T13:04:07.436Z,728
2017-01-08T13:06:20.349Z,672
2017-01-08T13:08:34.468Z,672
2017-01-08T13:10:46.868Z,652
2017-01-08T13:13:02.616Z,584
2017-01-08T13:15:18.091Z,568
2017-01-08T13:17:31.080Z,596
2017-01-08T13:19:38.716Z,648
2017-01-08T13:21:51.471Z,652
2017-01-08T13:24:05.681Z,640
2017-01-08T13:26:18.573Z,612
2017-01-08T13:28:30.898Z,604
2017-01-08T13:30:44.017Z,680
2017-01-08T13:32:52.691Z,704
2017-01-08T13:35:08.397Z,676
2017-01-08T13:37:20.748Z,612
2017-01-08T13:39:33.384Z,608
2017-01-08T13:43:53.354Z,684
2017-01-08T13:46:07.104Z,712
2017-01-08T13:48:22.089Z,904
2017-01-08T13:50:35.194Z,1048
2017-01-08T13:52:45.742Z,1092
2017-01-08T13:54:54.656Z,1116
2017-01-08T13:57:08.887Z,1116
2017-01-08T13:59:17.806Z,1100
2017-01-08T14:01:30.423Z,984
2017-01-08T14:03:43.485Z,836
2017-01-08T14:05:56.410Z,696
2017-01-08T14:08:03.770Z,636
2017-01-08T14:10:16.403Z,632
2017-01-08T14:12:28.932Z,624
2017-01-08T14:14:41.216Z,600
2017-01-08T14:16:48.787Z,544
2017-01-08T14:19:01.124Z,508
2017-01-08T14:21:13.287Z,488
2017-01-08T14:23:20.659Z,476
2017-01-08T14:25:33.146Z,456
2017-01-08T14:27:45.687Z,400
2017-01-08T14:29:57.935Z,376
2017-01-08T14:32:10.117Z,360
2017-01-08T14:34:22.429Z,372
2017-01-08T14:36:30.500Z,364
2017-01-08T14:38:42.764Z,336
2017-01-08T14:40:53.545Z,276
2017-01-08T14:43:05.886Z,252
2017-01-08T14:45:18.331Z,228
2017-01-08T14:47:30.544Z,200
2017-01-08T14:49:43.060Z,192
2017-01-08T14:51:55.247Z,168
2017-01-08T14:54:07.505Z,160
2017-01-08T14:56:20.011Z,148
2017-01-08T14:58:32.522Z,140
2017-01-08T15:00:45.330Z,144
2017-01-08T15:02:57.775Z,144
2017-01-08T15:05:10.171Z,140
2017-01-08T15:07:22.618Z,116
2017-01-08T15:09:34.858Z,100
2017-01-08T15:11:47.255Z,88
2017-01-08T15:16:08.889Z,76
2017-01-08T15:18:16.576Z,68
2017-01-08T15:20:30.111Z,60
2017-01-08T15:22:42.760Z,56
2017-01-08T15:24:51.210Z,52
2017-01-08T15:27:03.482Z,48
2017-01-08T15:29:17.045Z,44
2017-01-08T15:31:24.990Z,36
2017-01-08T15:33:38.061Z,32
2017-01-08T15:35:50.820Z,28
2017-01-08T15:38:05.472Z,24
2017-01-08T15:40:19.490Z,24
2017-01-08T15:42:32.162Z,20
2017-01-08T15:44:40.662Z,12
2017-01-08T15:46:53.399Z,12
2017-01-08T15:49:06.529Z,8
2017-01-08T15:51:14.150Z,8
2017-01-08T15:53:21.432Z,8
2017-01-08T15:55:33.831Z,4
2017-01-08T15:57:46.232Z,4
2017-01-08T15:59:58.933Z,0
2017-01-08T16:02:11.683Z,4
2017-01-08T16:04:24.493Z,0
2017-01-08T16:06:37.054Z,0
2017-01-08T16:08:49.696Z,0
2017-01-08T16:11:02.323Z,0
2017-01-08T16:13:15.117Z,0
2017-01-08T16:15:27.635Z,0
2017-01-08T16:17:40.362Z,0
2017-01-08T16:19:53.384Z,0
2017-01-08T16:22:05.717Z,0
2017-01-08T16:24:18.114Z,0
2017-01-08T16:26:30.868Z,0
2017-01-08T16:28:38.432Z,0
2017-01-08T16:30:46.082Z,0
2017-01-08T16:32:59.810Z,0
2017-01-08T16:35:12.838Z,0
2017-01-08T16:37:25.783Z,0
2017-01-08T16:39:33.581Z,0
2017-01-08T16:41:48.133Z,0
2017-01-08T16:43:57.206Z,0
2017-01-08T16:46:05.321Z,0
2017-01-08T16:48:17.770Z,0
2017-01-08T16:50:31.531Z,0
2017-01-08T16:52:45.432Z,0
2017-01-08T16:54:53.750Z,0
2017-01-08T16:57:07.546Z,0
2017-01-08T16:59:20.575Z,0
2017-01-08T17:01:37.292Z,0
2017-01-08T17:03:45.006Z,0
2017-01-08T17:05:57.836Z,0
2017-01-08T17:08:11.720Z,0
2017-01-08T17:10:25.956Z,0
2017-01-08T17:12:39.704Z,0
2017-01-08T17:14:52.875Z,0
2017-01-08T17:17:07.521Z,0
2017-01-08T17:19:21.657Z,0
2017-01-08T17:21:40.031Z,0
2017-01-08T17:23:52.558Z,0
2017-01-08T17:26:06.260Z,0
2017-01-08T17:28:19.940Z,0
2017-01-08T17:30:34.240Z,0
2017-01-08T17:32:46.925Z,0
2017-01-08T17:34:59.403Z,0
2017-01-08T17:37:09.032Z,0
2017-01-08T17:39:24.400Z,0
2017-01-08T17:41:37.842Z,0
2017-01-08T17:43:41.724Z,0
2017-01-08T17:45:50.202Z,0
2017-01-08T17:48:06.523Z,0
2017-01-08T17:50:21.158Z,0
2017-01-08T17:52:29.582Z,0
2017-01-08T17:54:37.915Z,0
2017-01-08T17:56:51.432Z,0
2017-01-08T17:59:04.527Z,0
2017-01-08T18:01:17.632Z,0
2017-01-08T18:03:30.878Z,0
2017-01-08T18:05:38.481Z,0
2017-01-08T18:07:52.798Z,0
2017-01-08T18:10:05.525Z,0
2017-01-08T18:12:18.124Z,0
2017-01-08T18:14:30.860Z,0
2017-01-08T18:16:38.658Z,0
2017-01-08T18:18:52.589Z,0
2017-01-08T18:21:04.927Z,0
2017-01-08T18:23:17.550Z,0
2017-01-08T18:25:30.239Z,0
2017-01-08T18:27:42.872Z,0
2017-01-08T18:29:55.334Z,0
2017-01-08T18:32:07.813Z,0
2017-01-08T18:34:20.232Z,0
2017-01-08T18:36:27.800Z,0
2017-01-08T18:38:40.155Z,0
2017-01-08T18:40:52.897Z,0
2017-01-08T18:43:06.542Z,0
2017-01-08T18:45:19.197Z,0
2017-01-08T18:47:31.735Z,0
2017-01-08T18:49:44.200Z,0
2017-01-08T18:51:56.772Z,0
2017-01-08T18:54:09.313Z,0
2017-01-08T18:56:22.177Z,0
2017-01-08T18:58:35.173Z,0
2017-01-08T19:00:47.779Z,0
2017-01-08T19:03:00.380Z,0
2017-01-08T19:05:12.793Z,0
2017-01-08T19:07:25.142Z,0
2017-01-08T19:09:37.504Z,0
2017-01-08T19:11:49.867Z,0
2017-01-08T19:14:02.953Z,0
2017-01-08T19:16:15.508Z,0
2017-01-08T19:18:27.804Z,0
2017-01-08T19:20:40.221Z,0
2017-01-08T19:22:48.700Z,0
2017-01-08T19:25:04.442Z,0
2017-01-08T19:27:16.922Z,0
2017-01-08T19:29:30.896Z,0
2017-01-08T19:31:45.868Z,0
2017-01-08T19:34:05.505Z,0
2017-01-08T19:36:30.686Z,0
2017-01-08T19:38:59.580Z,0
2017-01-08T19:41:45.883Z,0
2017-01-08T19:44:37.076Z,0
2017-01-08T19:47:30.850Z,0
2017-01-08T19:50:24.144Z,0
2017-01-08T19:53:18.651Z,0
2017-01-08T19:56:16.557Z,0
2017-01-08T19:59:15.707Z,0
2017-01-08T20:02:03.890Z,0
2017-01-08T20:04:54.160Z,0
2017-01-08T20:07:34.111Z,0
2017-01-08T20:09:49.861Z,0
2017-01-08T20:12:03.640Z,0
2017-01-08T20:14:19.296Z,0
2017-01-08T20:16:35.114Z,0
2017-01-08T20:18:50.086Z,0
2017-01-08T20:21:36.188Z,0
2017-01-08T20:23:56.972Z,0
2017-01-08T20:26:11.309Z,0
2017-01-08T20:28:29.329Z,0
2017-01-08T20:30:47.735Z,0
2017-01-08T20:33:03.396Z,0
2017-01-08T20:35:43.085Z,0
2017-01-08T20:37:58.492Z,0
2017-01-08T20:40:37.074Z,0
2017-01-08T20:43:31.649Z,0
2017-01-08T20:46:14.787Z,0
2017-01-08T20:49:01.806Z,0
2017-01-08T20:51:52.093Z,0
2017-01-08T20:54:36.290Z,0
2017-01-08T20:57:28.604Z,0
2017-01-08T20:59:54.812Z,0
2017-01-08T21:02:41.104Z,0
2017-01-08T21:05:03.648Z,0
2017-01-08T21:07:34.954Z,0
2017-01-08T21:10:02.779Z,0
2017-01-08T21:12:52.602Z,0
2017-01-08T21:15:44.681Z,0
2017-01-08T21:18:31.075Z,0
2017-01-08T21:20:56.680Z,0
2017-01-08T21:23:25.118Z,0
2017-01-08T21:26:05.133Z,0
2017-01-08T21:28:45.900Z,0
2017-01-08T21:31:15.620Z,0
2017-01-08T21:33:42.837Z,0
2017-01-08T21:36:14.101Z,0
2017-01-08T21:38:51.274Z,0
2017-01-08T21:41:27.973Z,0
2017-01-08T21:43:59.872Z,0
2017-01-08T21:46:41.263Z,0
2017-01-08T21:49:00.198Z,0
2017-01-08T21:51:08.078Z,0
2017-01-08T21:53:53.710Z,0
2017-01-08T21:56:47.779Z,0
2017-01-08T21:59:05.462Z,0
2017-01-08T22:01:18.120Z,0
2017-01-08T22:03:33.676Z,0
2017-01-08T22:05:51.427Z,0
2017-01-08T22:08:18.201Z,0
2017-01-08T22:10:44.369Z,0
2017-01-08T22:13:02.098Z,0
2017-01-08T22:15:26.967Z,0
2017-01-08T22:17:46.891Z,0
2017-01-08T22:20:03.129Z,0
2017-01-08T22:22:17.563Z,0
2017-01-08T22:24:32.008Z,0
2017-01-08T22:26:52.708Z,0
2017-01-08T22:29:08.966Z,0
2017-01-08T22:31:19.663Z,0
2017-01-08T22:33:37.388Z,0
2017-01-08T22:35:46.173Z,0
2017-01-08T22:38:18.364Z,0
2017-01-08T22:41:06.095Z,0
2017-01-08T22:43:53.408Z,0
2017-01-08T22:46:13.435Z,0
2017-01-08T22:48:38.195Z,0
2017-01-08T22:50:53.159Z,0
2017-01-08T22:53:11.912Z,0
2017-01-08T22:55:27.252Z,0
2017-01-08T22:57:43.342Z,0
2017-01-08T23:00:03.459Z,0
2017-01-08T23:02:30.784Z,0
2017-01-08T23:04:42.597Z,0
2017-01-08T23:06:57.316Z,0
2017-01-08T23:09:16.884Z,0
2017-01-08T23:11:40.828Z,0
2017-01-08T23:14:09.748Z,0
2017-01-08T23:16:22.562Z,0
2017-01-08T23:18:31.954Z,0
2017-01-08T23:20:45.998Z,0
2017-01-08T23:23:07.623Z,0
2017-01-08T23:25:21.278Z,0
2017-01-08T23:27:33.633Z,0
2017-01-08T23:29:41.012Z,0
2017-01-08T23:31:53.303Z,0
2017-01-08T23:34:03.882Z,0
2017-01-08T23:36:17.307Z,0
2017-01-08T23:38:29.782Z,0
2017-01-08T23:40:42.347Z,0
2017-01-08T23:42:49.998Z,0
2017-01-08T23:45:02.397Z,0
2017-01-08T23:47:15.097Z,0
2017-01-08T23:49:22.629Z,0
2017-01-08T23:51:30.101Z,0
2017-01-08T23:53:42.556Z,0
2017-01-08T23:55:54.895Z,0
2017-01-08T23:58:07.235Z,0
